sensor_id;sensor_type;location;lat;lon;timestamp;pressure;altitude;pressure_sealevel;temperature;humidity
38038;BME280;23843;51.320;12.340;2022-08-05T04:32:31;99948.63;;;25.03;52.27
38038;BME280;23843;51.320;12.340;2022-08-05T04:34:57;99959.56;;;25.09;51.89
38038;BME280;23843;51.320;12.340;2022-08-05T04:37:22;99991.63;;;25.20;51.80
38038;BME280;23843;51.320;12.340;2022-08-05T04:39:48;100026.44;;;25.32;50.64
38038;BME280;23843;51.320;12.340;2022-08-05T04:42:13;100059.63;;;25.34;51.39
38038;BME280;23843;51.320;12.340;2022-08-05T04:44:38;100068.03;;;25.39;50.07
38038;BME280;23843;51.320;12.340;2022-08-05T04:47:04;100037.19;;;25.40;51.92
38038;BME280;23843;51.320;12.340;2022-08-05T04:49:31;100024.00;;;25.52;50.99
38038;BME280;23843;51.320;12.340;2022-08-05T04:51:56;100032.50;;;25.63;50.91
38038;BME280;23843;51.320;12.340;2022-08-05T04:54:22;100044.84;;;25.51;50.35
38038;BME280;23843;51.320;12.340;2022-08-05T04:56:47;100055.88;;;25.35;51.11
38038;BME280;23843;51.320;12.340;2022-08-05T04:59:13;100050.06;;;25.38;51.30
38038;BME280;23843;51.320;12.340;2022-08-05T05:01:38;100026.59;;;25.60;51.20
38038;BME280;23843;51.320;12.340;2022-08-05T05:04:03;100040.22;;;25.81;50.95
38038;BME280;23843;51.320;12.340;2022-08-05T05:06:30;100050.97;;;26.04;50.42
38038;BME280;23843;51.320;12.340;2022-08-05T05:08:56;100050.22;;;26.32;49.52
38038;BME280;23843;51.320;12.340;2022-08-05T05:11:21;100063.28;;;26.58;49.44
38038;BME280;23843;51.320;12.340;2022-08-05T05:13:47;100069.38;;;26.88;48.62
38038;BME280;23843;51.320;12.340;2022-08-05T05:16:12;100064.44;;;26.99;48.13
38038;BME280;23843;51.320;12.340;2022-08-05T05:18:38;100063.25;;;27.08;48.41
38038;BME280;23843;51.320;12.340;2022-08-05T05:21:03;100071.69;;;27.48;47.17
38038;BME280;23843;51.320;12.340;2022-08-05T05:23:30;100075.31;;;27.55;47.03
38038;BME280;23843;51.320;12.340;2022-08-05T05:25:56;100094.34;;;27.83;47.45
38038;BME280;23843;51.320;12.340;2022-08-05T05:28:21;100082.09;;;28.07;46.75
38038;BME280;23843;51.320;12.340;2022-08-05T05:30:46;100087.84;;;28.39;46.37
38038;BME280;23843;51.320;12.340;2022-08-05T05:33:12;100089.78;;;28.52;46.37
38038;BME280;23843;51.320;12.340;2022-08-05T05:35:37;100079.94;;;28.84;45.85
38038;BME280;23843;51.320;12.340;2022-08-05T05:38:03;100083.31;;;28.93;46.15
38038;BME280;23843;51.320;12.340;2022-08-05T05:40:30;100083.75;;;29.16;46.16
38038;BME280;23843;51.320;12.340;2022-08-05T05:42:56;100062.75;;;29.30;45.68
38038;BME280;23843;51.320;12.340;2022-08-05T05:45:21;100061.66;;;29.44;45.35
38038;BME280;23843;51.320;12.340;2022-08-05T05:47:47;100052.56;;;29.77;45.06
38038;BME280;23843;51.320;12.340;2022-08-05T05:50:14;100045.75;;;30.38;44.72
38038;BME280;23843;51.320;12.340;2022-08-05T05:52:40;100042.44;;;30.61;43.68
38038;BME280;23843;51.320;12.340;2022-08-05T05:55:08;100039.69;;;30.93;43.12
38038;BME280;23843;51.320;12.340;2022-08-05T05:57:35;100027.81;;;31.24;41.70
38038;BME280;23843;51.320;12.340;2022-08-05T06:00:05;100026.53;;;31.45;44.11
38038;BME280;23843;51.320;12.340;2022-08-05T06:02:31;100029.53;;;31.44;42.50
38038;BME280;23843;51.320;12.340;2022-08-05T06:04:57;100031.81;;;32.14;40.80
38038;BME280;23843;51.320;12.340;2022-08-05T06:07:22;100029.06;;;32.14;41.17
38038;BME280;23843;51.320;12.340;2022-08-05T06:09:48;100038.81;;;32.40;39.82
38038;BME280;23843;51.320;12.340;2022-08-05T06:12:13;100032.72;;;32.80;39.45
38038;BME280;23843;51.320;12.340;2022-08-05T06:14:40;100047.41;;;33.33;39.32
38038;BME280;23843;51.320;12.340;2022-08-05T06:17:06;100045.66;;;33.27;39.14
38038;BME280;23843;51.320;12.340;2022-08-05T06:19:33;100050.13;;;32.74;38.06
38038;BME280;23843;51.320;12.340;2022-08-05T06:22:01;100052.16;;;31.88;39.08
38038;BME280;23843;51.320;12.340;2022-08-05T06:24:27;100048.44;;;31.45;40.49
38038;BME280;23843;51.320;12.340;2022-08-05T06:26:52;100039.22;;;30.96;40.76
38038;BME280;23843;51.320;12.340;2022-08-05T06:29:18;100036.53;;;30.33;42.10
38038;BME280;23843;51.320;12.340;2022-08-05T06:31:45;100030.66;;;29.97;43.09
38038;BME280;23843;51.320;12.340;2022-08-05T06:34:11;100029.91;;;29.70;43.45
38038;BME280;23843;51.320;12.340;2022-08-05T06:36:36;100025.81;;;29.21;44.03
38038;BME280;23843;51.320;12.340;2022-08-05T06:39:02;100049.34;;;29.02;44.30
38038;BME280;23843;51.320;12.340;2022-08-05T06:41:27;100042.41;;;28.93;44.64
38038;BME280;23843;51.320;12.340;2022-08-05T06:43:53;100030.03;;;28.77;45.57
38038;BME280;23843;51.320;12.340;2022-08-05T06:46:18;100036.94;;;28.53;45.57
38038;BME280;23843;51.320;12.340;2022-08-05T06:48:45;100063.88;;;28.14;46.83
38038;BME280;23843;51.320;12.340;2022-08-05T06:51:11;100075.34;;;28.03;47.80
38038;BME280;23843;51.320;12.340;2022-08-05T06:53:36;100079.28;;;27.94;48.18
38038;BME280;23843;51.320;12.340;2022-08-05T06:56:02;100096.94;;;28.05;48.20
38038;BME280;23843;51.320;12.340;2022-08-05T06:58:28;100107.44;;;28.08;47.71
38038;BME280;23843;51.320;12.340;2022-08-05T07:00:53;100108.06;;;28.10;47.96
38038;BME280;23843;51.320;12.340;2022-08-05T07:03:19;100106.19;;;28.10;48.19
38038;BME280;23843;51.320;12.340;2022-08-05T07:05:46;100090.47;;;28.12;48.26
38038;BME280;23843;51.320;12.340;2022-08-05T07:08:11;100104.06;;;28.06;48.04
38038;BME280;23843;51.320;12.340;2022-08-05T07:10:38;100106.84;;;28.26;47.48
38038;BME280;23843;51.320;12.340;2022-08-05T07:13:03;100107.09;;;28.37;47.11
38038;BME280;23843;51.320;12.340;2022-08-05T07:15:29;100112.19;;;28.47;45.98
38038;BME280;23843;51.320;12.340;2022-08-05T07:17:54;100117.63;;;28.47;46.22
38038;BME280;23843;51.320;12.340;2022-08-05T07:20:19;100134.44;;;28.57;46.39
38038;BME280;23843;51.320;12.340;2022-08-05T07:22:46;100145.38;;;28.71;46.00
38038;BME280;23843;51.320;12.340;2022-08-05T07:25:11;100150.59;;;28.59;46.31
38038;BME280;23843;51.320;12.340;2022-08-05T07:27:37;100154.97;;;28.53;46.28
38038;BME280;23843;51.320;12.340;2022-08-05T07:30:03;100151.50;;;28.25;46.62
38038;BME280;23843;51.320;12.340;2022-08-05T07:32:31;100153.56;;;28.23;46.88
38038;BME280;23843;51.320;12.340;2022-08-05T07:34:58;100164.25;;;28.17;47.31
38038;BME280;23843;51.320;12.340;2022-08-05T07:37:24;100168.00;;;28.16;48.02
38038;BME280;23843;51.320;12.340;2022-08-05T07:39:50;100175.56;;;28.21;47.64
38038;BME280;23843;51.320;12.340;2022-08-05T07:42:16;100171.34;;;28.18;47.89
38038;BME280;23843;51.320;12.340;2022-08-05T07:44:41;100172.94;;;28.41;47.11
38038;BME280;23843;51.320;12.340;2022-08-05T07:47:07;100169.78;;;28.44;46.94
38038;BME280;23843;51.320;12.340;2022-08-05T07:49:32;100177.63;;;28.54;46.61
38038;BME280;23843;51.320;12.340;2022-08-05T07:51:57;100163.03;;;28.33;47.00
38038;BME280;23843;51.320;12.340;2022-08-05T07:54:23;100172.03;;;28.27;47.14
38038;BME280;23843;51.320;12.340;2022-08-05T07:56:50;100179.41;;;28.40;47.41
38038;BME280;23843;51.320;12.340;2022-08-05T07:59:15;100182.47;;;28.58;47.09
38038;BME280;23843;51.320;12.340;2022-08-05T08:01:41;100179.81;;;28.98;46.76
38038;BME280;23843;51.320;12.340;2022-08-05T08:04:06;100184.06;;;29.41;45.63
38038;BME280;23843;51.320;12.340;2022-08-05T08:06:32;100193.31;;;29.67;44.86
38038;BME280;23843;51.320;12.340;2022-08-05T08:08:57;100202.09;;;29.89;44.88
38038;BME280;23843;51.320;12.340;2022-08-05T08:11:22;100199.47;;;30.20;43.99
38038;BME280;23843;51.320;12.340;2022-08-05T08:13:49;100199.72;;;30.12;43.67
38038;BME280;23843;51.320;12.340;2022-08-05T08:16:14;100214.09;;;30.53;43.58
38038;BME280;23843;51.320;12.340;2022-08-05T08:18:40;100208.50;;;31.68;42.37
38038;BME280;23843;51.320;12.340;2022-08-05T08:21:05;100208.84;;;32.33;40.35
38038;BME280;23843;51.320;12.340;2022-08-05T08:23:31;100205.97;;;32.47;39.54
38038;BME280;23843;51.320;12.340;2022-08-05T08:25:56;100207.38;;;32.56;39.87
38038;BME280;23843;51.320;12.340;2022-08-05T08:28:22;100197.47;;;32.36;40.04
38038;BME280;23843;51.320;12.340;2022-08-05T08:30:49;100185.94;;;32.28;40.05
38038;BME280;23843;51.320;12.340;2022-08-05T08:33:14;100184.94;;;32.59;40.04
38038;BME280;23843;51.320;12.340;2022-08-05T08:35:39;100200.75;;;33.83;39.07
38038;BME280;23843;51.320;12.340;2022-08-05T08:38:05;100211.06;;;35.26;36.54
38038;BME280;23843;51.320;12.340;2022-08-05T08:40:32;100207.44;;;35.08;35.41
38038;BME280;23843;51.320;12.340;2022-08-05T08:42:58;100187.34;;;34.50;35.64
38038;BME280;23843;51.320;12.340;2022-08-05T08:45:24;100180.19;;;33.74;37.07
38038;BME280;23843;51.320;12.340;2022-08-05T08:47:52;100169.41;;;33.25;38.11
38038;BME280;23843;51.320;12.340;2022-08-05T08:50:19;100147.75;;;31.96;38.75
38038;BME280;23843;51.320;12.340;2022-08-05T08:52:49;100130.53;;;31.27;39.56
38038;BME280;23843;51.320;12.340;2022-08-05T08:55:15;100133.72;;;30.92;39.93
38038;BME280;23843;51.320;12.340;2022-08-05T08:57:40;100149.25;;;30.66;40.77
38038;BME280;23843;51.320;12.340;2022-08-05T09:00:07;100150.72;;;31.01;41.26
38038;BME280;23843;51.320;12.340;2022-08-05T09:02:32;100156.47;;;33.02;39.34
38038;BME280;23843;51.320;12.340;2022-08-05T09:04:59;100146.50;;;35.17;36.22
38038;BME280;23843;51.320;12.340;2022-08-05T09:07:25;100145.09;;;36.09;34.10
38038;BME280;23843;51.320;12.340;2022-08-05T09:09:50;100134.56;;;36.06;33.89
38038;BME280;23843;51.320;12.340;2022-08-05T09:12:15;100133.59;;;35.95;32.98
38038;BME280;23843;51.320;12.340;2022-08-05T09:14:41;100129.50;;;37.01;32.17
38038;BME280;23843;51.320;12.340;2022-08-05T09:17:09;100119.94;;;37.46;31.22
38038;BME280;23843;51.320;12.340;2022-08-05T09:19:35;100124.59;;;38.82;29.67
38038;BME280;23843;51.320;12.340;2022-08-05T09:22:02;100110.16;;;39.56;28.71
38038;BME280;23843;51.320;12.340;2022-08-05T09:24:28;100095.75;;;39.59;26.73
38038;BME280;23843;51.320;12.340;2022-08-05T09:26:55;100097.41;;;38.43;27.97
38038;BME280;23843;51.320;12.340;2022-08-05T09:29:36;100094.78;;;37.05;30.67
38038;BME280;23843;51.320;12.340;2022-08-05T09:32:02;100103.59;;;36.20;32.02
38038;BME280;23843;51.320;12.340;2022-08-05T09:34:51;100108.78;;;35.17;31.28
38038;BME280;23843;51.320;12.340;2022-08-05T09:37:19;100124.09;;;34.22;33.52
38038;BME280;23843;51.320;12.340;2022-08-05T09:39:45;100121.38;;;33.98;34.66
38038;BME280;23843;51.320;12.340;2022-08-05T09:42:11;100106.41;;;34.06;34.82
38038;BME280;23843;51.320;12.340;2022-08-05T09:44:38;100120.28;;;33.99;34.77
38038;BME280;23843;51.320;12.340;2022-08-05T09:47:09;100123.47;;;33.32;34.63
38038;BME280;23843;51.320;12.340;2022-08-05T09:49:39;100118.94;;;32.84;35.51
38038;BME280;23843;51.320;12.340;2022-08-05T09:52:17;100123.59;;;32.83;36.71
38038;BME280;23843;51.320;12.340;2022-08-05T09:54:51;100118.47;;;32.75;36.85
38038;BME280;23843;51.320;12.340;2022-08-05T09:57:27;100125.03;;;32.86;36.80
38038;BME280;23843;51.320;12.340;2022-08-05T09:59:56;100125.75;;;32.81;35.62
38038;BME280;23843;51.320;12.340;2022-08-05T10:02:30;100137.25;;;32.60;35.98
38038;BME280;23843;51.320;12.340;2022-08-05T10:05:02;100147.34;;;32.29;36.62
38038;BME280;23843;51.320;12.340;2022-08-05T10:07:46;100158.06;;;32.31;36.57
38038;BME280;23843;51.320;12.340;2022-08-05T10:10:11;100145.03;;;32.14;37.26
38038;BME280;23843;51.320;12.340;2022-08-05T10:12:42;100142.69;;;32.00;37.56
38038;BME280;23843;51.320;12.340;2022-08-05T10:15:19;100142.97;;;32.10;37.29
38038;BME280;23843;51.320;12.340;2022-08-05T10:18:02;100147.84;;;32.38;37.30
38038;BME280;23843;51.320;12.340;2022-08-05T10:20:29;100147.34;;;32.29;37.19
38038;BME280;23843;51.320;12.340;2022-08-05T10:22:57;100121.19;;;31.96;37.37
38038;BME280;23843;51.320;12.340;2022-08-05T10:25:22;100127.28;;;31.80;37.97
38038;BME280;23843;51.320;12.340;2022-08-05T10:27:48;100137.84;;;32.13;37.51
38038;BME280;23843;51.320;12.340;2022-08-05T10:30:13;100141.44;;;31.95;37.27
38038;BME280;23843;51.320;12.340;2022-08-05T10:32:39;100165.47;;;31.93;37.88
38038;BME280;23843;51.320;12.340;2022-08-05T10:35:05;100150.56;;;32.08;37.69
38038;BME280;23843;51.320;12.340;2022-08-05T10:37:31;100141.72;;;31.69;38.02
38038;BME280;23843;51.320;12.340;2022-08-05T10:40:00;100143.31;;;31.76;38.17
38038;BME280;23843;51.320;12.340;2022-08-05T10:42:28;100130.91;;;31.74;38.73
38038;BME280;23843;51.320;12.340;2022-08-05T10:44:54;100127.72;;;31.77;37.96
38038;BME280;23843;51.320;12.340;2022-08-05T10:47:30;100132.22;;;31.90;37.76
38038;BME280;23843;51.320;12.340;2022-08-05T10:49:59;100131.06;;;31.79;38.17
38038;BME280;23843;51.320;12.340;2022-08-05T10:52:37;100136.41;;;31.92;38.06
38038;BME280;23843;51.320;12.340;2022-08-05T10:55:06;100144.63;;;32.11;38.15
38038;BME280;23843;51.320;12.340;2022-08-05T10:57:32;100130.94;;;32.11;37.44
38038;BME280;23843;51.320;12.340;2022-08-05T11:00:12;100125.84;;;31.96;37.37
38038;BME280;23843;51.320;12.340;2022-08-05T11:03:12;100123.91;;;31.41;38.49
38038;BME280;23843;51.320;12.340;2022-08-05T11:05:38;100120.13;;;31.61;38.35
38038;BME280;23843;51.320;12.340;2022-08-05T11:08:04;100114.78;;;31.84;38.01
38038;BME280;23843;51.320;12.340;2022-08-05T11:10:33;100119.66;;;31.82;38.02
38038;BME280;23843;51.320;12.340;2022-08-05T11:12:59;100107.56;;;31.71;38.80
38038;BME280;23843;51.320;12.340;2022-08-05T11:15:25;100113.78;;;31.60;38.54
38038;BME280;23843;51.320;12.340;2022-08-05T11:17:52;100100.69;;;31.44;38.81
38038;BME280;23843;51.320;12.340;2022-08-05T11:20:34;100106.78;;;31.21;39.27
38038;BME280;23843;51.320;12.340;2022-08-05T11:23:00;100106.22;;;30.87;40.00
38038;BME280;23843;51.320;12.340;2022-08-05T11:25:59;100094.53;;;30.73;40.21
38038;BME280;23843;51.320;12.340;2022-08-05T11:28:42;100098.72;;;30.76;39.96
38038;BME280;23843;51.320;12.340;2022-08-05T11:31:18;100102.44;;;30.88;39.73
38038;BME280;23843;51.320;12.340;2022-08-05T11:33:52;100090.84;;;30.92;39.70
38038;BME280;23843;51.320;12.340;2022-08-05T11:36:19;100096.50;;;30.91;40.37
38038;BME280;23843;51.320;12.340;2022-08-05T11:38:51;100094.84;;;30.90;39.70
38038;BME280;23843;51.320;12.340;2022-08-05T11:41:20;100094.69;;;30.85;40.03
38038;BME280;23843;51.320;12.340;2022-08-05T11:43:53;100090.59;;;30.94;40.20
38038;BME280;23843;51.320;12.340;2022-08-05T11:46:24;100091.44;;;30.95;39.87
38038;BME280;23843;51.320;12.340;2022-08-05T11:48:49;100090.88;;;31.11;39.24
38038;BME280;23843;51.320;12.340;2022-08-05T11:51:15;100093.38;;;31.12;38.96
38038;BME280;23843;51.320;12.340;2022-08-05T11:53:41;100083.22;;;31.20;39.32
38038;BME280;23843;51.320;12.340;2022-08-05T11:56:06;100088.63;;;31.26;38.74
38038;BME280;23843;51.320;12.340;2022-08-05T11:58:36;100083.38;;;31.25;39.60
38038;BME280;23843;51.320;12.340;2022-08-05T12:01:03;100077.91;;;31.25;39.68
38038;BME280;23843;51.320;12.340;2022-08-05T12:03:39;100073.41;;;31.12;39.45
38038;BME280;23843;51.320;12.340;2022-08-05T12:06:05;100074.34;;;30.99;38.53
38038;BME280;23843;51.320;12.340;2022-08-05T12:08:31;100067.22;;;30.98;37.65
38038;BME280;23843;51.320;12.340;2022-08-05T12:10:58;100079.09;;;31.10;38.03
38038;BME280;23843;51.320;12.340;2022-08-05T12:13:24;100068.19;;;31.29;38.32
38038;BME280;23843;51.320;12.340;2022-08-05T12:15:51;100068.72;;;31.38;37.74
38038;BME280;23843;51.320;12.340;2022-08-05T12:18:17;100070.75;;;31.49;37.68
38038;BME280;23843;51.320;12.340;2022-08-05T12:20:42;100066.03;;;31.31;37.11
38038;BME280;23843;51.320;12.340;2022-08-05T12:23:09;100064.44;;;31.23;37.55
38038;BME280;23843;51.320;12.340;2022-08-05T12:25:47;100068.78;;;31.31;37.69
38038;BME280;23843;51.320;12.340;2022-08-05T12:28:29;100065.38;;;31.35;37.52
38038;BME280;23843;51.320;12.340;2022-08-05T12:30:56;100065.81;;;31.32;38.40
38038;BME280;23843;51.320;12.340;2022-08-05T12:33:22;100068.69;;;31.44;36.90
38038;BME280;23843;51.320;12.340;2022-08-05T12:35:48;100075.06;;;31.56;36.92
38038;BME280;23843;51.320;12.340;2022-08-05T12:38:14;100071.88;;;31.60;37.08
38038;BME280;23843;51.320;12.340;2022-08-05T12:40:39;100069.81;;;31.55;36.97
38038;BME280;23843;51.320;12.340;2022-08-05T12:43:05;100066.78;;;31.63;36.75
38038;BME280;23843;51.320;12.340;2022-08-05T12:45:31;100075.66;;;31.77;36.07
38038;BME280;23843;51.320;12.340;2022-08-05T12:47:58;100082.28;;;31.69;35.92
38038;BME280;23843;51.320;12.340;2022-08-05T12:50:23;100085.97;;;31.63;36.60
38038;BME280;23843;51.320;12.340;2022-08-05T12:52:56;100089.22;;;31.53;36.63
38038;BME280;23843;51.320;12.340;2022-08-05T12:55:23;100080.88;;;31.48;36.92
38038;BME280;23843;51.320;12.340;2022-08-05T12:57:49;100087.22;;;31.42;36.81
38038;BME280;23843;51.320;12.340;2022-08-05T13:00:19;100090.28;;;31.52;37.03
38038;BME280;23843;51.320;12.340;2022-08-05T13:02:45;100098.56;;;31.64;37.16
38038;BME280;23843;51.320;12.340;2022-08-05T13:05:12;100096.38;;;31.73;36.84
38038;BME280;23843;51.320;12.340;2022-08-05T13:07:38;100089.50;;;31.82;36.51
38038;BME280;23843;51.320;12.340;2022-08-05T13:10:09;100086.94;;;31.69;37.07
38038;BME280;23843;51.320;12.340;2022-08-05T13:12:39;100085.97;;;31.63;37.04
38038;BME280;23843;51.320;12.340;2022-08-05T13:15:09;100086.47;;;31.72;37.77
38038;BME280;23843;51.320;12.340;2022-08-05T13:17:35;100087.72;;;31.76;37.18
38038;BME280;23843;51.320;12.340;2022-08-05T13:20:02;100084.28;;;31.81;36.81
38038;BME280;23843;51.320;12.340;2022-08-05T13:22:30;100077.97;;;31.80;37.18
38038;BME280;23843;51.320;12.340;2022-08-05T13:24:57;100082.75;;;31.85;37.14
38038;BME280;23843;51.320;12.340;2022-08-05T13:27:24;100083.19;;;31.82;37.18
38038;BME280;23843;51.320;12.340;2022-08-05T13:29:50;100089.28;;;31.84;37.13
38038;BME280;23843;51.320;12.340;2022-08-05T13:32:15;100082.97;;;31.83;36.75
38038;BME280;23843;51.320;12.340;2022-08-05T13:34:40;100092.41;;;31.69;37.15
38038;BME280;23843;51.320;12.340;2022-08-05T13:37:06;100090.59;;;31.63;37.97
38038;BME280;23843;51.320;12.340;2022-08-05T13:39:33;100088.31;;;31.60;37.35
38038;BME280;23843;51.320;12.340;2022-08-05T13:41:58;100082.22;;;31.58;37.48
38038;BME280;23843;51.320;12.340;2022-08-05T13:44:23;100084.94;;;31.58;37.03
38038;BME280;23843;51.320;12.340;2022-08-05T13:46:49;100084.94;;;31.58;37.09
38038;BME280;23843;51.320;12.340;2022-08-05T13:49:14;100083.28;;;31.56;35.33
38038;BME280;23843;51.320;12.340;2022-08-05T13:51:40;100086.78;;;31.64;35.48
38038;BME280;23843;51.320;12.340;2022-08-05T13:54:05;100090.75;;;31.68;36.17
38038;BME280;23843;51.320;12.340;2022-08-05T13:56:32;100091.34;;;31.70;36.20
38038;BME280;23843;51.320;12.340;2022-08-05T13:58:57;100102.75;;;31.67;35.66
38038;BME280;23843;51.320;12.340;2022-08-05T14:01:23;100099.72;;;31.56;35.08
38038;BME280;23843;51.320;12.340;2022-08-05T14:03:48;100096.81;;;31.51;34.58
38038;BME280;23843;51.320;12.340;2022-08-05T14:06:13;100100.69;;;31.44;35.04
38038;BME280;23843;51.320;12.340;2022-08-05T14:08:39;100099.84;;;31.43;34.78
38038;BME280;23843;51.320;12.340;2022-08-05T14:11:04;100107.88;;;31.38;34.71
38038;BME280;23843;51.320;12.340;2022-08-05T14:13:31;100106.22;;;31.37;34.84
38038;BME280;23843;51.320;12.340;2022-08-05T14:15:56;100104.13;;;31.32;34.88
38038;BME280;23843;51.320;12.340;2022-08-05T14:18:22;100105.88;;;31.27;34.76
38038;BME280;23843;51.320;12.340;2022-08-05T14:20:47;100099.63;;;31.20;34.81
38038;BME280;23843;51.320;12.340;2022-08-05T14:23:13;100102.13;;;31.21;34.45
38038;BME280;23843;51.320;12.340;2022-08-05T14:25:38;100109.47;;;31.27;34.67
38038;BME280;23843;51.320;12.340;2022-08-05T14:28:04;100105.28;;;31.25;34.33
38038;BME280;23843;51.320;12.340;2022-08-05T14:30:30;100103.56;;;31.24;34.68
38038;BME280;23843;51.320;12.340;2022-08-05T14:32:56;100089.75;;;31.19;35.01
38038;BME280;23843;51.320;12.340;2022-08-05T14:35:21;100089.56;;;31.13;35.26
38038;BME280;23843;51.320;12.340;2022-08-05T14:37:47;100084.56;;;31.10;35.39
38038;BME280;23843;51.320;12.340;2022-08-05T14:40:12;100086.06;;;31.06;35.16
38038;BME280;23843;51.320;12.340;2022-08-05T14:42:38;100093.06;;;31.02;35.30
38038;BME280;23843;51.320;12.340;2022-08-05T14:45:04;100102.72;;;31.05;35.34
38038;BME280;23843;51.320;12.340;2022-08-05T14:47:31;100095.84;;;30.96;35.48
38038;BME280;23843;51.320;12.340;2022-08-05T14:49:56;100104.34;;;30.87;35.45
38038;BME280;23843;51.320;12.340;2022-08-05T14:52:22;100110.84;;;30.86;35.84
38038;BME280;23843;51.320;12.340;2022-08-05T14:54:47;100111.25;;;30.90;35.60
38038;BME280;23843;51.320;12.340;2022-08-05T14:57:12;100116.72;;;30.90;35.76
38038;BME280;23843;51.320;12.340;2022-08-05T14:59:38;100118.59;;;30.89;35.72
38038;BME280;23843;51.320;12.340;2022-08-05T15:02:04;100124.78;;;30.85;35.64
38038;BME280;23843;51.320;12.340;2022-08-05T15:04:30;100125.16;;;30.82;35.81
38038;BME280;23843;51.320;12.340;2022-08-05T15:06:56;100124.78;;;30.85;35.99
38038;BME280;23843;51.320;12.340;2022-08-05T15:09:21;100135.09;;;30.83;35.84
38038;BME280;23843;51.320;12.340;2022-08-05T15:11:47;100135.09;;;30.83;35.50
38038;BME280;23843;51.320;12.340;2022-08-05T15:14:13;100135.31;;;30.75;35.47
38038;BME280;23843;51.320;12.340;2022-08-05T15:16:38;100150.50;;;30.70;35.78
38038;BME280;23843;51.320;12.340;2022-08-05T15:19:04;100141.66;;;30.68;35.54
38038;BME280;23843;51.320;12.340;2022-08-05T15:21:30;100150.53;;;30.64;35.73
38038;BME280;23843;51.320;12.340;2022-08-05T15:23:56;100156.84;;;30.58;35.57
38038;BME280;23843;51.320;12.340;2022-08-05T15:26:21;100178.16;;;30.49;35.81
38038;BME280;23843;51.320;12.340;2022-08-05T15:28:47;100186.00;;;30.39;37.24
38038;BME280;23843;51.320;12.340;2022-08-05T15:31:12;100202.47;;;30.12;39.74
38038;BME280;23843;51.320;12.340;2022-08-05T15:33:38;100228.13;;;29.84;41.62
38038;BME280;23843;51.320;12.340;2022-08-05T15:36:04;100227.31;;;29.44;42.64
38038;BME280;23843;51.320;12.340;2022-08-05T15:38:31;100238.78;;;29.06;43.64
38038;BME280;23843;51.320;12.340;2022-08-05T15:40:57;100252.75;;;28.76;44.58
38038;BME280;23843;51.320;12.340;2022-08-05T15:43:22;100250.56;;;28.52;45.17
38038;BME280;23843;51.320;12.340;2022-08-05T15:45:48;100258.72;;;28.17;46.05
38038;BME280;23843;51.320;12.340;2022-08-05T15:48:13;100273.97;;;28.11;47.42
38038;BME280;23843;51.320;12.340;2022-08-05T15:50:39;100268.84;;;27.95;47.66
38038;BME280;23843;51.320;12.340;2022-08-05T15:53:05;100272.56;;;27.87;46.59
38038;BME280;23843;51.320;12.340;2022-08-05T15:55:32;100287.66;;;27.68;48.41
38038;BME280;23843;51.320;12.340;2022-08-05T15:57:57;100306.72;;;27.68;48.92
38038;BME280;23843;51.320;12.340;2022-08-05T16:00:22;100305.59;;;27.63;48.57
38038;BME280;23843;51.320;12.340;2022-08-05T16:02:48;100321.00;;;27.49;48.76
38038;BME280;23843;51.320;12.340;2022-08-05T16:05:13;100336.56;;;27.19;50.07
38038;BME280;23843;51.320;12.340;2022-08-05T16:07:39;100339.28;;;27.04;50.56
38038;BME280;23843;51.320;12.340;2022-08-05T16:10:05;100331.44;;;26.79;51.04
38038;BME280;23843;51.320;12.340;2022-08-05T16:12:32;100342.53;;;26.63;51.29
38038;BME280;23843;51.320;12.340;2022-08-05T16:14:57;100345.13;;;26.41;52.37
38038;BME280;23843;51.320;12.340;2022-08-05T16:17:23;100357.66;;;26.42;52.61
38038;BME280;23843;51.320;12.340;2022-08-05T16:19:48;100366.88;;;26.41;51.79
38038;BME280;23843;51.320;12.340;2022-08-05T16:22:14;100364.03;;;26.20;51.59
38038;BME280;23843;51.320;12.340;2022-08-05T16:24:39;100374.97;;;26.12;52.41
38038;BME280;23843;51.320;12.340;2022-08-05T16:27:05;100382.50;;;26.01;52.94
38038;BME280;23843;51.320;12.340;2022-08-05T16:29:33;100387.09;;;25.78;52.98
38038;BME280;23843;51.320;12.340;2022-08-05T16:31:58;100395.50;;;25.60;53.98
38038;BME280;23843;51.320;12.340;2022-08-05T16:34:25;100399.19;;;25.44;54.98
38038;BME280;23843;51.320;12.340;2022-08-05T16:36:50;100412.69;;;25.21;56.33
38038;BME280;23843;51.320;12.340;2022-08-05T16:39:16;100415.94;;;25.08;56.29
38038;BME280;23843;51.320;12.340;2022-08-05T16:41:42;100408.47;;;25.10;54.92
38038;BME280;23843;51.320;12.340;2022-08-05T16:44:07;100422.19;;;25.09;54.69
38038;BME280;23843;51.320;12.340;2022-08-05T16:46:35;100428.13;;;25.04;54.46
38038;BME280;23843;51.320;12.340;2022-08-05T16:49:00;100431.94;;;24.87;54.83
38038;BME280;23843;51.320;12.340;2022-08-05T16:51:26;100430.78;;;24.81;53.82
38038;BME280;23843;51.320;12.340;2022-08-05T16:53:51;100447.59;;;24.52;54.29
38038;BME280;23843;51.320;12.340;2022-08-05T16:56:17;100462.13;;;24.43;54.21
38038;BME280;23843;51.320;12.340;2022-08-05T16:58:43;100468.41;;;24.27;53.65
38038;BME280;23843;51.320;12.340;2022-08-05T17:01:09;100455.19;;;24.16;53.86
38038;BME280;23843;51.320;12.340;2022-08-05T17:03:36;100457.75;;;24.17;54.24
38038;BME280;23843;51.320;12.340;2022-08-05T17:06:05;100464.31;;;24.31;53.82
38038;BME280;23843;51.320;12.340;2022-08-05T17:08:31;100458.41;;;24.27;53.72
38038;BME280;23843;51.320;12.340;2022-08-05T17:10:56;100461.78;;;24.21;53.45